Terminal Aerodrome Forecast
Issued by NWS

Home | Current Version | Previous Version | Text Only | Print | Product List | Glossary On
Versions: 1 2 3 4 5 6 7 8 9 10 11 12 13 14 15 16 17 18 19 20 21 22
442
FTUS46 KLOX 061142
TAFLGB
TAF
KLGB 061142Z 0612/0712 15005KT P6SM -SHRA SCT025 BKN050
     FM061600 19007KT P6SM -SHRA BKN025 OVC040
      TEMPO 0619/0621 6SM TSRA BKN020CB OVC040
     FM062300 24009KT P6SM VCSH SCT025 BKN050
     FM070400 30006KT P6SM VCSH SCT025 BKN050
     FM071000 VRB03KT P6SM -SHRA SCT025 BKN040=

USA.gov is the U.S. government's official web portal to all federal, state and local government web resources and services.